Map

Track Data

SID SEASON NUMBER BASIN SUBBASIN NAME ISO_TIME NATURE LAT LON WMO_WIND WMO_PRES WMO_AGENCY TRACK_TYPE DIST2LAND LANDFALL IFLAG USA_AGENCY USA_ATCF_ID USA_LAT USA_LON USA_RECORD USA_STATUS USA_WIND USA_PRES USA_SSHS USA_R34_NE USA_R34_SE USA_R34_SW USA_R34_NW USA_R50_NE USA_R50_SE USA_R50_SW USA_R50_NW USA_R64_NE USA_R64_SE USA_R64_SW USA_R64_NW USA_POCI USA_ROCI USA_RMW USA_EYE TOKYO_LAT TOKYO_LON TOKYO_GRADE TOKYO_WIND TOKYO_PRES TOKYO_R50_DIR TOKYO_R50_LONG TOKYO_R50_SHORT TOKYO_R30_DIR TOKYO_R30_LONG TOKYO_R30_SHORT TOKYO_LAND CMA_LAT CMA_LON CMA_CAT CMA_WIND CMA_PRES HKO_LAT HKO_LON HKO_CAT HKO_WIND HKO_PRES NEWDELHI_LAT NEWDELHI_LON NEWDELHI_GRADE NEWDELHI_WIND NEWDELHI_PRES NEWDELHI_CI NEWDELHI_DP NEWDELHI_POCI REUNION_LAT REUNION_LON REUNION_TYPE REUNION_WIND REUNION_PRES REUNION_TNUM REUNION_CI REUNION_RMW REUNION_R34_NE REUNION_R34_SE REUNION_R34_SW REUNION_R34_NW REUNION_R50_NE REUNION_R50_SE REUNION_R50_SW REUNION_R50_NW REUNION_R64_NE REUNION_R64_SE REUNION_R64_SW REUNION_R64_NW BOM_LAT BOM_LON BOM_TYPE BOM_WIND BOM_PRES BOM_TNUM BOM_CI BOM_RMW BOM_R34_NE BOM_R34_SE BOM_R34_SW BOM_R34_NW BOM_R50_NE BOM_R50_SE BOM_R50_SW BOM_R50_NW BOM_R64_NE BOM_R64_SE BOM_R64_SW BOM_R64_NW BOM_ROCI BOM_POCI BOM_EYE BOM_POS_METHOD BOM_PRES_METHOD NADI_LAT NADI_LON NADI_CAT NADI_WIND NADI_PRES WELLINGTON_LAT WELLINGTON_LON WELLINGTON_WIND WELLINGTON_PRES DS824_LAT DS824_LON DS824_STAGE DS824_WIND DS824_PRES TD9636_LAT TD9636_LON TD9636_STAGE TD9636_WIND TD9636_PRES TD9635_LAT TD9635_LON TD9635_WIND TD9635_PRES TD9635_ROCI NEUMANN_LAT NEUMANN_LON NEUMANN_CLASS NEUMANN_WIND NEUMANN_PRES MLC_LAT MLC_LON MLC_CLASS MLC_WIND MLC_PRES USA_GUST BOM_GUST BOM_GUST_PER REUNION_GUST REUNION_GUST_PER USA_SEAHGT USA_SEARAD_NE USA_SEARAD_SE USA_SEARAD_SW USA_SEARAD_NW STORM_SPEED STORM_DIR
1949131S24105 1949 29 SI WA NOT_NAMED 1949-05-11 06:00:00 NR -23.5000 105.400 main 818 808 _____O________ -1 -23.5000 105.400 99 9.90000 1 108
1949131S24105 1949 29 SI WA NOT_NAMED 1949-05-11 09:00:00 NR -23.5168 105.460 main 808 808 _____P________ -1 -23.5168 105.460 99 1 109
1949131S24105 1949 29 SI WA NOT_NAMED 1949-05-11 12:00:00 NR -23.5392 105.523 main 808 796 _____P________ -1 -23.5392 105.523 99 1 114
1949131S24105 1949 29 SI WA NOT_NAMED 1949-05-11 15:00:00 NR -23.5726 105.595 main 796 786 _____P________ -1 -23.5726 105.595 99 2 121
1949131S24105 1949 29 SI WA NOT_NAMED 1949-05-11 18:00:00 NR -23.6227 105.677 main 786 775 _____P________ -1 -23.6227 105.677 99 2 127
1949131S24105 1949 29 SI WA NOT_NAMED 1949-05-11 21:00:00 NR -23.6950 105.775 main 775 763 _____P________ -1 -23.6950 105.775 99 3 131
1949131S24105 1949 29 SI WA NOT_NAMED 1949-05-12 00:00:00 NR -23.7950 105.892 main 763 752 _____P________ -1 -23.7950 105.892 99 3 135
1949131S24105 1949 29 SI WA NOT_NAMED 1949-05-12 03:00:00 NR -23.9282 106.033 main 752 730 _____P________ -1 -23.9282 106.033 99 4 137
1949131S24105 1949 29 SI WA NOT_NAMED 1949-05-12 06:00:00 NR -24.1000 106.200 main 730 708 _____O________ -1 -24.1000 106.200 99 9.90000 5 139
1949131S24105 1949 29 SI WA NOT_NAMED 1949-05-12 09:00:00 NR -24.3110 106.398 main 708 687 _____P________ -1 -24.3110 106.398 99 6 139
1949131S24105 1949 29 SI WA NOT_NAMED 1949-05-12 12:00:00 NR -24.5421 106.627 main 687 657 _____P________ -1 -24.5421 106.627 99 6 136
1949131S24105 1949 29 SI WA NOT_NAMED 1949-05-12 15:00:00 NR -24.7691 106.886 main 658 623 _____P________ -1 -24.7691 106.886 99 7 131
1949131S24105 1949 29 SI WA NOT_NAMED 1949-05-12 18:00:00 NR -24.9679 107.174 main 623 591 _____P________ -1 -24.9679 107.174 99 6 122
1949131S24105 1949 29 SI WA NOT_NAMED 1949-05-12 21:00:00 NR -25.1144 107.491 main 591 559 _____P________ -1 -25.1144 107.491 99 6 110
1949131S24105 1949 29 SI WA NOT_NAMED 1949-05-13 00:00:00 NR -25.1847 107.836 main 559 520 _____P________ -1 -25.1847 107.836 99 6 94
1949131S24105 1949 29 SI WA NOT_NAMED 1949-05-13 03:00:00 NR -25.1546 108.206 main 520 486 _____P________ -1 -25.1546 108.206 99 7 75
1949131S24105 1949 29 SI WA NOT_NAMED 1949-05-13 06:00:00 NR -25.0000 108.600 main 486 445 _____O________ -1 -25.0000 108.600 99 9.90000 9 53
1949131S24105 1949 29 SI WA NOT_NAMED 1949-05-13 09:00:00 NR -24.5861 109.033 main 445 396 _____P________ -1 -24.5861 109.033 99 13 40
1949131S24105 1949 29 SI WA NOT_NAMED 1949-05-13 12:00:00 NR -24.0394 109.493 main 397 369 _____P________ -1 -24.0394 109.493 99 15 36
1949131S24105 1949 29 SI WA NOT_NAMED 1949-05-13 15:00:00 NR -23.3958 109.969 main 360 328 _____P________ -1 -23.3958 109.969 99 16 33
1949131S24105 1949 29 SI WA NOT_NAMED 1949-05-13 18:00:00 NR -22.6915 110.448 main 328 285 _____P________ -1 -22.6915 110.448 99 17 32
1949131S24105 1949 29 SI WA NOT_NAMED 1949-05-13 21:00:00 NR -21.9631 110.921 main 285 269 _____P________ -1 -21.9631 110.921 99 17 31
1949131S24105 1949 29 SI WA NOT_NAMED 1949-05-14 00:00:00 NR -21.2473 111.377 main 275 264 _____P________ -1 -21.2473 111.377 99 16 31
1949131S24105 1949 29 SI WA NOT_NAMED 1949-05-14 03:00:00 NR -20.5807 111.806 main 270 268 _____P________ -1 -20.5807 111.806 99 15 32
1949131S24105 1949 29 SI WA NOT_NAMED 1949-05-14 06:00:00 NR -20.0000 112.200 main 282 282 _____O________ -1 -20.0000 112.200 99 9.90000 13 34
1949131S24105 1949 29 SI WA NOT_NAMED 1949-05-14 09:00:00 NR -19.5329 112.553 main 305 305 _____P________ -1 -19.5329 112.553 99 10 37
1949131S24105 1949 29 SI WA NOT_NAMED 1949-05-14 12:00:00 NR -19.1728 112.869 main 322 322 _____P________ -1 -19.1728 112.869 99 9 42
1949131S24105 1949 29 SI WA NOT_NAMED 1949-05-14 15:00:00 NR -18.9043 113.154 main 345 345 _____P________ -1 -18.9043 113.154 99 7 48
1949131S24105 1949 29 SI WA NOT_NAMED 1949-05-14 18:00:00 NR -18.7121 113.413 main 363 361 _____P________ -1 -18.7121 113.413 99 6 56
1949131S24105 1949 29 SI WA NOT_NAMED 1949-05-14 21:00:00 NR -18.5808 113.652 main 362 358 _____P________ -1 -18.5808 113.652 99 5 64
1949131S24105 1949 29 SI WA NOT_NAMED 1949-05-15 00:00:00 NR -18.4953 113.876 main 358 352 _____P________ -1 -18.4953 113.876 99 4 71
1949131S24105 1949 29 SI WA NOT_NAMED 1949-05-15 03:00:00 NR -18.4401 114.090 main 355 343 _____P________ -1 -18.4401 114.090 99 4 77
1949131S24105 1949 29 SI WA NOT_NAMED 1949-05-15 06:00:00 NR -18.4000 114.300 main 343 _____O________ -1 -18.4000 114.300 99 9.90000 4 79

About IBTrACS Database

This database is a web-friendly format of International Best Track Archive for Climate Stewardship (IBTrACS), a global best track data archive curated by NOAA dating back to 1842.

Updated: 2021-10-21